sensor_id;sensor_type;location;lat;lon;timestamp;temperature;humidity
29731;DHT22;16639;51.488;0.152;2022-12-18T00:01:12;0.20;99.90
29731;DHT22;16639;51.488;0.152;2022-12-18T00:03:40;0.20;99.90
29731;DHT22;16639;51.488;0.152;2022-12-18T00:06:08;0.20;99.90
29731;DHT22;16639;51.488;0.152;2022-12-18T00:08:35;0.10;99.90
29731;DHT22;16639;51.488;0.152;2022-12-18T00:11:06;0.10;99.90
29731;DHT22;16639;51.488;0.152;2022-12-18T00:13:34;0.10;99.90
29731;DHT22;16639;51.488;0.152;2022-12-18T00:16:03;0.10;99.90
29731;DHT22;16639;51.488;0.152;2022-12-18T00:18:31;0.00;99.90
29731;DHT22;16639;51.488;0.152;2022-12-18T00:20:58;0.00;99.90
29731;DHT22;16639;51.488;0.152;2022-12-18T00:23:27;0.00;99.90
29731;DHT22;16639;51.488;0.152;2022-12-18T00:25:54;0.00;99.90
29731;DHT22;16639;51.488;0.152;2022-12-18T00:28:22;0.00;99.90
29731;DHT22;16639;51.488;0.152;2022-12-18T00:30:49;0.00;99.90
29731;DHT22;16639;51.488;0.152;2022-12-18T00:33:18;0.20;99.90
29731;DHT22;16639;51.488;0.152;2022-12-18T00:35:45;0.10;99.90
29731;DHT22;16639;51.488;0.152;2022-12-18T00:38:12;0.10;99.90
29731;DHT22;16639;51.488;0.152;2022-12-18T00:40:40;0.00;99.90
29731;DHT22;16639;51.488;0.152;2022-12-18T00:43:07;0.10;99.90
29731;DHT22;16639;51.488;0.152;2022-12-18T00:45:35;0.10;99.90
29731;DHT22;16639;51.488;0.152;2022-12-18T00:48:02;0.00;99.90
29731;DHT22;16639;51.488;0.152;2022-12-18T00:50:30;0.00;99.90
29731;DHT22;16639;51.488;0.152;2022-12-18T00:52:57;0.00;99.90
29731;DHT22;16639;51.488;0.152;2022-12-18T00:55:24;0.00;99.90
29731;DHT22;16639;51.488;0.152;2022-12-18T00:57:51;0.00;99.90
29731;DHT22;16639;51.488;0.152;2022-12-18T01:00:19;0.00;99.90
29731;DHT22;16639;51.488;0.152;2022-12-18T01:02:46;0.00;99.90
29731;DHT22;16639;51.488;0.152;2022-12-18T01:05:14;0.00;99.90
29731;DHT22;16639;51.488;0.152;2022-12-18T01:07:41;0.00;99.90
29731;DHT22;16639;51.488;0.152;2022-12-18T01:10:09;0.00;99.90
29731;DHT22;16639;51.488;0.152;2022-12-18T01:12:36;0.10;99.90
29731;DHT22;16639;51.488;0.152;2022-12-18T01:15:06;0.00;99.90
29731;DHT22;16639;51.488;0.152;2022-12-18T01:17:34;0.10;99.90
29731;DHT22;16639;51.488;0.152;2022-12-18T01:20:04;0.00;99.90
29731;DHT22;16639;51.488;0.152;2022-12-18T01:22:32;0.00;99.90
29731;DHT22;16639;51.488;0.152;2022-12-18T01:24:59;0.00;99.90
29731;DHT22;16639;51.488;0.152;2022-12-18T01:27:27;2.20;99.90
29731;DHT22;16639;51.488;0.152;2022-12-18T01:29:55;0.00;99.90
29731;DHT22;16639;51.488;0.152;2022-12-18T01:32:22;0.00;99.90
29731;DHT22;16639;51.488;0.152;2022-12-18T01:34:49;0.00;99.90
29731;DHT22;16639;51.488;0.152;2022-12-18T01:37:19;0.00;99.90
29731;DHT22;16639;51.488;0.152;2022-12-18T01:39:46;0.10;99.90
29731;DHT22;16639;51.488;0.152;2022-12-18T01:42:14;0.00;99.90
29731;DHT22;16639;51.488;0.152;2022-12-18T01:52:38;0.00;99.90
29731;DHT22;16639;51.488;0.152;2022-12-18T01:55:08;0.00;99.90
29731;DHT22;16639;51.488;0.152;2022-12-18T01:57:37;0.60;99.90
29731;DHT22;16639;51.488;0.152;2022-12-18T02:00:08;0.90;99.90
29731;DHT22;16639;51.488;0.152;2022-12-18T02:02:35;-0.10;99.90
29731;DHT22;16639;51.488;0.152;2022-12-18T02:05:03;0.00;99.90
29731;DHT22;16639;51.488;0.152;2022-12-18T02:10:18;0.00;99.90
29731;DHT22;16639;51.488;0.152;2022-12-18T02:15:49;0.00;99.90
29731;DHT22;16639;51.488;0.152;2022-12-18T02:18:12;0.00;99.90
29731;DHT22;16639;51.488;0.152;2022-12-18T02:23:37;0.00;99.90
29731;DHT22;16639;51.488;0.152;2022-12-18T02:26:21;0.10;99.90
29731;DHT22;16639;51.488;0.152;2022-12-18T02:28:58;0.50;99.90
29731;DHT22;16639;51.488;0.152;2022-12-18T02:31:27;0.00;99.90
29731;DHT22;16639;51.488;0.152;2022-12-18T02:33:55;0.10;99.90
29731;DHT22;16639;51.488;0.152;2022-12-18T02:36:23;0.00;99.90
29731;DHT22;16639;51.488;0.152;2022-12-18T02:38:51;0.00;99.90
29731;DHT22;16639;51.488;0.152;2022-12-18T02:41:19;0.00;99.90
29731;DHT22;16639;51.488;0.152;2022-12-18T02:43:48;0.00;99.90
29731;DHT22;16639;51.488;0.152;2022-12-18T02:46:26;0.00;99.90
29731;DHT22;16639;51.488;0.152;2022-12-18T02:49:00;0.00;99.90
29731;DHT22;16639;51.488;0.152;2022-12-18T02:57:23;0.00;99.90
29731;DHT22;16639;51.488;0.152;2022-12-18T03:00:35;0.00;99.90
29731;DHT22;16639;51.488;0.152;2022-12-18T03:02:45;0.00;99.90
29731;DHT22;16639;51.488;0.152;2022-12-18T03:05:25;0.00;99.90
29731;DHT22;16639;51.488;0.152;2022-12-18T03:08:39;-0.10;99.90
29731;DHT22;16639;51.488;0.152;2022-12-18T03:10:49;0.00;99.90
29731;DHT22;16639;51.488;0.152;2022-12-18T03:13:23;-0.20;99.90
29731;DHT22;16639;51.488;0.152;2022-12-18T03:15:53;-0.10;99.90
29731;DHT22;16639;51.488;0.152;2022-12-18T03:18:23;-0.20;99.90
29731;DHT22;16639;51.488;0.152;2022-12-18T03:20:51;0.80;99.90
29731;DHT22;16639;51.488;0.152;2022-12-18T03:23:24;-0.30;99.90
29731;DHT22;16639;51.488;0.152;2022-12-18T03:25:53;-0.10;99.90
29731;DHT22;16639;51.488;0.152;2022-12-18T03:28:30;-0.10;99.90
29731;DHT22;16639;51.488;0.152;2022-12-18T03:31:01;-0.10;99.90
29731;DHT22;16639;51.488;0.152;2022-12-18T03:33:34;-0.10;99.90
29731;DHT22;16639;51.488;0.152;2022-12-18T03:36:05;0.00;99.90
29731;DHT22;16639;51.488;0.152;2022-12-18T03:38:32;0.00;99.90
29731;DHT22;16639;51.488;0.152;2022-12-18T03:41:02;0.00;99.90
29731;DHT22;16639;51.488;0.152;2022-12-18T03:46:08;0.10;99.90
29731;DHT22;16639;51.488;0.152;2022-12-18T03:48:40;0.20;99.90
29731;DHT22;16639;51.488;0.152;2022-12-18T03:51:18;0.20;99.90
29731;DHT22;16639;51.488;0.152;2022-12-18T03:53:55;0.20;99.90
29731;DHT22;16639;51.488;0.152;2022-12-18T03:56:25;0.20;99.90
29731;DHT22;16639;51.488;0.152;2022-12-18T03:58:54;0.30;99.90
29731;DHT22;16639;51.488;0.152;2022-12-18T04:01:25;0.30;99.90
29731;DHT22;16639;51.488;0.152;2022-12-18T04:03:55;1.20;99.90
29731;DHT22;16639;51.488;0.152;2022-12-18T04:06:23;0.40;99.90
29731;DHT22;16639;51.488;0.152;2022-12-18T04:08:50;0.30;99.90
29731;DHT22;16639;51.488;0.152;2022-12-18T04:11:17;0.30;99.90
29731;DHT22;16639;51.488;0.152;2022-12-18T04:13:45;0.40;99.90
29731;DHT22;16639;51.488;0.152;2022-12-18T04:16:13;0.30;99.90
29731;DHT22;16639;51.488;0.152;2022-12-18T04:18:40;0.30;99.90
29731;DHT22;16639;51.488;0.152;2022-12-18T04:21:08;0.40;99.90
29731;DHT22;16639;51.488;0.152;2022-12-18T04:23:35;0.40;99.90
29731;DHT22;16639;51.488;0.152;2022-12-18T04:26:02;0.40;99.90
29731;DHT22;16639;51.488;0.152;2022-12-18T04:28:31;0.50;99.90
29731;DHT22;16639;51.488;0.152;2022-12-18T04:30:59;0.40;99.90
29731;DHT22;16639;51.488;0.152;2022-12-18T04:33:26;0.40;99.90
29731;DHT22;16639;51.488;0.152;2022-12-18T04:35:53;0.40;99.90
29731;DHT22;16639;51.488;0.152;2022-12-18T04:38:20;0.40;99.90
29731;DHT22;16639;51.488;0.152;2022-12-18T04:40:47;0.40;99.90
29731;DHT22;16639;51.488;0.152;2022-12-18T04:43:14;0.30;99.90
29731;DHT22;16639;51.488;0.152;2022-12-18T04:45:42;0.40;99.90
29731;DHT22;16639;51.488;0.152;2022-12-18T04:48:09;1.00;99.90
29731;DHT22;16639;51.488;0.152;2022-12-18T04:50:36;0.30;99.90
29731;DHT22;16639;51.488;0.152;2022-12-18T04:53:03;0.30;99.90
29731;DHT22;16639;51.488;0.152;2022-12-18T04:55:31;0.40;99.90
29731;DHT22;16639;51.488;0.152;2022-12-18T04:57:58;0.40;99.90
29731;DHT22;16639;51.488;0.152;2022-12-18T05:00:25;0.40;99.90
29731;DHT22;16639;51.488;0.152;2022-12-18T05:02:53;0.40;99.90
29731;DHT22;16639;51.488;0.152;2022-12-18T05:05:20;0.40;99.90
29731;DHT22;16639;51.488;0.152;2022-12-18T05:07:47;0.50;99.90
29731;DHT22;16639;51.488;0.152;2022-12-18T05:10:14;0.50;99.90
29731;DHT22;16639;51.488;0.152;2022-12-18T05:12:42;0.40;99.90
29731;DHT22;16639;51.488;0.152;2022-12-18T05:15:41;0.50;99.90
29731;DHT22;16639;51.488;0.152;2022-12-18T05:18:08;0.60;99.90
29731;DHT22;16639;51.488;0.152;2022-12-18T05:20:35;0.60;99.90
29731;DHT22;16639;51.488;0.152;2022-12-18T05:23:03;0.60;99.90
29731;DHT22;16639;51.488;0.152;2022-12-18T05:25:30;0.70;99.90
29731;DHT22;16639;51.488;0.152;2022-12-18T05:27:57;0.70;99.90
29731;DHT22;16639;51.488;0.152;2022-12-18T05:30:24;0.70;99.90
29731;DHT22;16639;51.488;0.152;2022-12-18T05:32:54;0.80;99.90
29731;DHT22;16639;51.488;0.152;2022-12-18T05:35:21;0.70;99.90
29731;DHT22;16639;51.488;0.152;2022-12-18T05:37:49;1.50;99.90
29731;DHT22;16639;51.488;0.152;2022-12-18T05:40:16;0.80;99.90
29731;DHT22;16639;51.488;0.152;2022-12-18T05:42:45;1.20;99.90
29731;DHT22;16639;51.488;0.152;2022-12-18T05:45:12;0.80;99.90
29731;DHT22;16639;51.488;0.152;2022-12-18T05:47:39;0.80;99.90
29731;DHT22;16639;51.488;0.152;2022-12-18T05:50:06;0.80;99.90
29731;DHT22;16639;51.488;0.152;2022-12-18T05:52:34;0.90;99.90
29731;DHT22;16639;51.488;0.152;2022-12-18T05:55:02;0.90;99.90
29731;DHT22;16639;51.488;0.152;2022-12-18T05:57:30;0.90;99.90
29731;DHT22;16639;51.488;0.152;2022-12-18T05:59:57;0.90;99.90
29731;DHT22;16639;51.488;0.152;2022-12-18T06:02:24;1.00;99.90
29731;DHT22;16639;51.488;0.152;2022-12-18T06:04:52;1.10;99.90
29731;DHT22;16639;51.488;0.152;2022-12-18T06:07:19;1.00;99.90
29731;DHT22;16639;51.488;0.152;2022-12-18T06:09:46;1.10;99.90
29731;DHT22;16639;51.488;0.152;2022-12-18T06:12:13;1.20;99.90
29731;DHT22;16639;51.488;0.152;2022-12-18T06:14:41;1.20;99.90
29731;DHT22;16639;51.488;0.152;2022-12-18T06:17:08;1.20;99.90
29731;DHT22;16639;51.488;0.152;2022-12-18T06:19:35;1.30;99.90
29731;DHT22;16639;51.488;0.152;2022-12-18T06:22:02;1.30;99.90
29731;DHT22;16639;51.488;0.152;2022-12-18T06:24:31;1.20;99.90
29731;DHT22;16639;51.488;0.152;2022-12-18T06:26:58;1.30;99.90
29731;DHT22;16639;51.488;0.152;2022-12-18T06:29:25;3.00;99.90
29731;DHT22;16639;51.488;0.152;2022-12-18T06:31:52;1.30;99.90
29731;DHT22;16639;51.488;0.152;2022-12-18T06:34:20;1.30;99.90
29731;DHT22;16639;51.488;0.152;2022-12-18T06:36:47;1.30;99.90
29731;DHT22;16639;51.488;0.152;2022-12-18T06:39:14;1.30;99.90
29731;DHT22;16639;51.488;0.152;2022-12-18T06:41:42;2.10;99.90
29731;DHT22;16639;51.488;0.152;2022-12-18T06:44:09;1.40;99.90
29731;DHT22;16639;51.488;0.152;2022-12-18T06:46:37;1.40;99.90
29731;DHT22;16639;51.488;0.152;2022-12-18T06:49:04;1.50;99.90
29731;DHT22;16639;51.488;0.152;2022-12-18T06:51:32;2.30;99.90
29731;DHT22;16639;51.488;0.152;2022-12-18T06:53:59;1.50;99.90
29731;DHT22;16639;51.488;0.152;2022-12-18T06:56:26;1.50;99.90
29731;DHT22;16639;51.488;0.152;2022-12-18T06:58:53;1.50;99.90
29731;DHT22;16639;51.488;0.152;2022-12-18T07:01:22;1.50;99.90
29731;DHT22;16639;51.488;0.152;2022-12-18T07:03:53;1.50;99.90
29731;DHT22;16639;51.488;0.152;2022-12-18T07:06:21;1.50;99.90
29731;DHT22;16639;51.488;0.152;2022-12-18T07:08:53;1.50;99.90
29731;DHT22;16639;51.488;0.152;2022-12-18T07:11:20;1.60;99.90
29731;DHT22;16639;51.488;0.152;2022-12-18T07:13:48;1.50;99.90
29731;DHT22;16639;51.488;0.152;2022-12-18T07:16:16;1.50;99.90
29731;DHT22;16639;51.488;0.152;2022-12-18T07:18:51;1.60;99.90
29731;DHT22;16639;51.488;0.152;2022-12-18T07:21:19;1.60;99.90
29731;DHT22;16639;51.488;0.152;2022-12-18T07:23:46;1.30;99.90
29731;DHT22;16639;51.488;0.152;2022-12-18T07:26:16;1.60;99.90
29731;DHT22;16639;51.488;0.152;2022-12-18T07:28:43;1.60;99.90
29731;DHT22;16639;51.488;0.152;2022-12-18T07:31:12;1.70;99.90
29731;DHT22;16639;51.488;0.152;2022-12-18T07:33:40;1.70;99.90
29731;DHT22;16639;51.488;0.152;2022-12-18T07:36:10;1.80;99.90
29731;DHT22;16639;51.488;0.152;2022-12-18T07:38:38;1.70;99.90
29731;DHT22;16639;51.488;0.152;2022-12-18T07:41:11;1.80;99.90
29731;DHT22;16639;51.488;0.152;2022-12-18T07:43:40;1.80;99.90
29731;DHT22;16639;51.488;0.152;2022-12-18T07:46:08;1.70;99.90
29731;DHT22;16639;51.488;0.152;2022-12-18T07:48:38;1.70;99.90
29731;DHT22;16639;51.488;0.152;2022-12-18T07:51:05;1.70;99.90
29731;DHT22;16639;51.488;0.152;2022-12-18T07:53:34;1.70;99.90
29731;DHT22;16639;51.488;0.152;2022-12-18T07:56:03;1.70;99.90
29731;DHT22;16639;51.488;0.152;2022-12-18T07:58:52;1.70;99.90
29731;DHT22;16639;51.488;0.152;2022-12-18T08:01:19;1.70;99.90
29731;DHT22;16639;51.488;0.152;2022-12-18T08:03:47;1.70;99.90
29731;DHT22;16639;51.488;0.152;2022-12-18T08:06:18;1.80;99.90
29731;DHT22;16639;51.488;0.152;2022-12-18T08:08:53;1.80;99.90
29731;DHT22;16639;51.488;0.152;2022-12-18T08:11:22;1.80;99.90
29731;DHT22;16639;51.488;0.152;2022-12-18T08:13:49;1.80;99.90
29731;DHT22;16639;51.488;0.152;2022-12-18T08:16:17;1.80;99.90
29731;DHT22;16639;51.488;0.152;2022-12-18T08:18:45;1.90;99.90
29731;DHT22;16639;51.488;0.152;2022-12-18T08:21:16;1.80;99.90
29731;DHT22;16639;51.488;0.152;2022-12-18T08:23:47;1.90;99.90
29731;DHT22;16639;51.488;0.152;2022-12-18T08:26:15;1.90;99.90
29731;DHT22;16639;51.488;0.152;2022-12-18T08:28:44;1.90;99.90
29731;DHT22;16639;51.488;0.152;2022-12-18T08:31:12;1.90;99.90
29731;DHT22;16639;51.488;0.152;2022-12-18T08:33:40;1.90;99.90
29731;DHT22;16639;51.488;0.152;2022-12-18T08:36:08;1.90;99.90
29731;DHT22;16639;51.488;0.152;2022-12-18T08:38:35;2.00;99.90
29731;DHT22;16639;51.488;0.152;2022-12-18T08:41:06;1.90;99.90
29731;DHT22;16639;51.488;0.152;2022-12-18T08:43:34;2.00;99.90
29731;DHT22;16639;51.488;0.152;2022-12-18T08:46:21;2.00;99.90
29731;DHT22;16639;51.488;0.152;2022-12-18T08:48:50;1.90;99.90
29731;DHT22;16639;51.488;0.152;2022-12-18T08:51:19;2.00;99.90
29731;DHT22;16639;51.488;0.152;2022-12-18T08:53:46;2.00;99.90
29731;DHT22;16639;51.488;0.152;2022-12-18T08:56:14;2.00;99.90
29731;DHT22;16639;51.488;0.152;2022-12-18T08:58:41;2.00;99.90
29731;DHT22;16639;51.488;0.152;2022-12-18T09:01:09;2.10;99.90
29731;DHT22;16639;51.488;0.152;2022-12-18T09:03:37;2.00;99.90
29731;DHT22;16639;51.488;0.152;2022-12-18T09:06:06;2.00;99.90
29731;DHT22;16639;51.488;0.152;2022-12-18T09:08:33;2.00;99.90
29731;DHT22;16639;51.488;0.152;2022-12-18T09:11:00;2.00;99.90
29731;DHT22;16639;51.488;0.152;2022-12-18T09:13:28;2.00;99.90
29731;DHT22;16639;51.488;0.152;2022-12-18T09:15:55;2.00;99.90
29731;DHT22;16639;51.488;0.152;2022-12-18T09:18:23;1.90;99.90
29731;DHT22;16639;51.488;0.152;2022-12-18T09:20:50;2.00;99.90
29731;DHT22;16639;51.488;0.152;2022-12-18T09:23:20;2.00;99.90
29731;DHT22;16639;51.488;0.152;2022-12-18T09:25:47;2.00;99.90
29731;DHT22;16639;51.488;0.152;2022-12-18T09:28:16;2.00;99.90
29731;DHT22;16639;51.488;0.152;2022-12-18T09:30:45;2.00;99.90
29731;DHT22;16639;51.488;0.152;2022-12-18T09:33:13;2.00;99.90
29731;DHT22;16639;51.488;0.152;2022-12-18T09:35:41;2.00;99.90
29731;DHT22;16639;51.488;0.152;2022-12-18T09:38:09;2.00;99.90
29731;DHT22;16639;51.488;0.152;2022-12-18T09:40:42;3.30;99.90
29731;DHT22;16639;51.488;0.152;2022-12-18T09:43:53;3.40;99.90
29731;DHT22;16639;51.488;0.152;2022-12-18T09:46:01;2.20;99.90
29731;DHT22;16639;51.488;0.152;2022-12-18T09:48:37;2.30;99.90
29731;DHT22;16639;51.488;0.152;2022-12-18T09:51:18;2.30;99.90
29731;DHT22;16639;51.488;0.152;2022-12-18T09:53:47;2.30;99.90
29731;DHT22;16639;51.488;0.152;2022-12-18T09:56:18;2.30;99.90
29731;DHT22;16639;51.488;0.152;2022-12-18T09:58:54;2.20;99.90
29731;DHT22;16639;51.488;0.152;2022-12-18T10:01:23;2.20;99.90
29731;DHT22;16639;51.488;0.152;2022-12-18T10:03:55;2.30;99.90
29731;DHT22;16639;51.488;0.152;2022-12-18T10:14:39;2.30;99.90
29731;DHT22;16639;51.488;0.152;2022-12-18T10:19:39;2.30;99.90
29731;DHT22;16639;51.488;0.152;2022-12-18T10:25:01;2.40;99.90
29731;DHT22;16639;51.488;0.152;2022-12-18T10:27:32;2.40;99.90
29731;DHT22;16639;51.488;0.152;2022-12-18T10:29:59;2.40;99.90
29731;DHT22;16639;51.488;0.152;2022-12-18T10:32:28;2.40;99.90
29731;DHT22;16639;51.488;0.152;2022-12-18T10:34:56;2.40;99.90
29731;DHT22;16639;51.488;0.152;2022-12-18T10:37:28;2.40;99.90
29731;DHT22;16639;51.488;0.152;2022-12-18T10:40:14;2.40;99.90
29731;DHT22;16639;51.488;0.152;2022-12-18T10:43:22;2.50;99.90
29731;DHT22;16639;51.488;0.152;2022-12-18T10:45:49;2.50;99.90
29731;DHT22;16639;51.488;0.152;2022-12-18T10:48:24;2.50;99.90
29731;DHT22;16639;51.488;0.152;2022-12-18T10:50:51;2.50;99.90
29731;DHT22;16639;51.488;0.152;2022-12-18T10:53:39;2.50;99.90
29731;DHT22;16639;51.488;0.152;2022-12-18T10:56:07;2.60;99.90
29731;DHT22;16639;51.488;0.152;2022-12-18T10:58:35;2.60;99.90
29731;DHT22;16639;51.488;0.152;2022-12-18T11:06:06;2.70;99.90
29731;DHT22;16639;51.488;0.152;2022-12-18T11:08:34;2.70;99.90
29731;DHT22;16639;51.488;0.152;2022-12-18T11:11:01;2.80;99.90
29731;DHT22;16639;51.488;0.152;2022-12-18T11:13:29;2.80;99.90
29731;DHT22;16639;51.488;0.152;2022-12-18T11:15:58;2.80;99.90
29731;DHT22;16639;51.488;0.152;2022-12-18T11:20:58;2.80;99.90
29731;DHT22;16639;51.488;0.152;2022-12-18T11:23:26;2.80;99.90
29731;DHT22;16639;51.488;0.152;2022-12-18T11:25:57;2.80;99.90
29731;DHT22;16639;51.488;0.152;2022-12-18T11:28:27;2.90;99.90
29731;DHT22;16639;51.488;0.152;2022-12-18T11:31:08;2.90;99.90
29731;DHT22;16639;51.488;0.152;2022-12-18T11:33:37;3.00;99.90
29731;DHT22;16639;51.488;0.152;2022-12-18T11:36:05;3.10;99.90
29731;DHT22;16639;51.488;0.152;2022-12-18T11:38:35;3.20;99.90
29731;DHT22;16639;51.488;0.152;2022-12-18T11:41:05;3.10;99.90
29731;DHT22;16639;51.488;0.152;2022-12-18T11:43:38;3.30;99.90
29731;DHT22;16639;51.488;0.152;2022-12-18T11:46:13;3.30;99.90
29731;DHT22;16639;51.488;0.152;2022-12-18T11:51:36;3.00;99.90
29731;DHT22;16639;51.488;0.152;2022-12-18T11:54:09;3.30;99.90
29731;DHT22;16639;51.488;0.152;2022-12-18T12:22:30;3.20;99.90
29731;DHT22;16639;51.488;0.152;2022-12-18T12:30:16;3.30;99.90
29731;DHT22;16639;51.488;0.152;2022-12-18T12:32:49;3.20;99.90
29731;DHT22;16639;51.488;0.152;2022-12-18T12:38:05;3.20;99.90
29731;DHT22;16639;51.488;0.152;2022-12-18T12:40:35;4.50;99.90
29731;DHT22;16639;51.488;0.152;2022-12-18T12:43:35;4.40;99.90
29731;DHT22;16639;51.488;0.152;2022-12-18T12:46:06;3.20;99.90
29731;DHT22;16639;51.488;0.152;2022-12-18T12:51:02;3.20;99.90
29731;DHT22;16639;51.488;0.152;2022-12-18T12:53:32;3.30;99.90
29731;DHT22;16639;51.488;0.152;2022-12-18T12:56:02;3.30;99.90
29731;DHT22;16639;51.488;0.152;2022-12-18T12:58:46;3.20;99.90
29731;DHT22;16639;51.488;0.152;2022-12-18T13:01:23;3.30;99.90
29731;DHT22;16639;51.488;0.152;2022-12-18T13:06:37;3.30;99.90
29731;DHT22;16639;51.488;0.152;2022-12-18T13:09:10;3.30;99.90
29731;DHT22;16639;51.488;0.152;2022-12-18T13:11:39;3.30;99.90
29731;DHT22;16639;51.488;0.152;2022-12-18T13:14:28;3.30;99.90
29731;DHT22;16639;51.488;0.152;2022-12-18T13:19:42;3.30;99.90
29731;DHT22;16639;51.488;0.152;2022-12-18T13:22:23;3.30;99.90
29731;DHT22;16639;51.488;0.152;2022-12-18T13:24:51;2.70;99.90
29731;DHT22;16639;51.488;0.152;2022-12-18T13:33:39;3.40;99.90
29731;DHT22;16639;51.488;0.152;2022-12-18T13:38:23;3.40;99.90
29731;DHT22;16639;51.488;0.152;2022-12-18T13:40:54;3.30;99.90
29731;DHT22;16639;51.488;0.152;2022-12-18T13:48:18;3.30;99.90
29731;DHT22;16639;51.488;0.152;2022-12-18T13:50:55;3.50;99.90
29731;DHT22;16639;51.488;0.152;2022-12-18T13:53:29;3.30;99.90
29731;DHT22;16639;51.488;0.152;2022-12-18T13:55:56;3.30;99.90
29731;DHT22;16639;51.488;0.152;2022-12-18T13:58:24;3.30;99.90
29731;DHT22;16639;51.488;0.152;2022-12-18T14:00:51;3.30;99.90
29731;DHT22;16639;51.488;0.152;2022-12-18T14:03:20;3.20;99.90
29731;DHT22;16639;51.488;0.152;2022-12-18T14:05:55;3.20;99.90
29731;DHT22;16639;51.488;0.152;2022-12-18T14:08:23;3.20;99.90
29731;DHT22;16639;51.488;0.152;2022-12-18T14:10:53;3.30;99.90
29731;DHT22;16639;51.488;0.152;2022-12-18T14:13:28;3.30;99.90
29731;DHT22;16639;51.488;0.152;2022-12-18T14:15:57;3.30;99.90
29731;DHT22;16639;51.488;0.152;2022-12-18T14:18:26;3.20;99.90
29731;DHT22;16639;51.488;0.152;2022-12-18T14:20:56;3.20;99.90
29731;DHT22;16639;51.488;0.152;2022-12-18T14:23:45;3.70;99.90
29731;DHT22;16639;51.488;0.152;2022-12-18T14:26:22;3.30;99.90
29731;DHT22;16639;51.488;0.152;2022-12-18T14:28:50;3.30;99.90
29731;DHT22;16639;51.488;0.152;2022-12-18T14:31:17;3.40;99.90
29731;DHT22;16639;51.488;0.152;2022-12-18T14:33:45;3.40;99.90
29731;DHT22;16639;51.488;0.152;2022-12-18T14:36:15;3.40;99.90
29731;DHT22;16639;51.488;0.152;2022-12-18T14:38:43;3.40;99.90
29731;DHT22;16639;51.488;0.152;2022-12-18T14:41:11;3.40;99.90
29731;DHT22;16639;51.488;0.152;2022-12-18T14:43:39;3.40;99.90
29731;DHT22;16639;51.488;0.152;2022-12-18T14:48:53;3.40;99.90
29731;DHT22;16639;51.488;0.152;2022-12-18T14:51:23;3.40;99.90
29731;DHT22;16639;51.488;0.152;2022-12-18T14:53:54;3.40;99.90
29731;DHT22;16639;51.488;0.152;2022-12-18T14:56:27;3.40;99.90
29731;DHT22;16639;51.488;0.152;2022-12-18T15:03:50;3.40;99.90
29731;DHT22;16639;51.488;0.152;2022-12-18T15:06:26;3.40;99.90
29731;DHT22;16639;51.488;0.152;2022-12-18T15:08:54;3.40;99.90
29731;DHT22;16639;51.488;0.152;2022-12-18T15:14:23;3.40;99.90
29731;DHT22;16639;51.488;0.152;2022-12-18T15:16:54;3.40;99.90
29731;DHT22;16639;51.488;0.152;2022-12-18T15:19:21;3.40;99.90
29731;DHT22;16639;51.488;0.152;2022-12-18T15:21:49;3.90;99.90
29731;DHT22;16639;51.488;0.152;2022-12-18T15:24:17;3.40;99.90
29731;DHT22;16639;51.488;0.152;2022-12-18T15:26:45;3.40;99.90
29731;DHT22;16639;51.488;0.152;2022-12-18T15:29:19;3.50;99.90
29731;DHT22;16639;51.488;0.152;2022-12-18T15:32:15;3.50;99.90
29731;DHT22;16639;51.488;0.152;2022-12-18T15:34:36;3.40;99.90
29731;DHT22;16639;51.488;0.152;2022-12-18T15:37:04;3.50;99.90
29731;DHT22;16639;51.488;0.152;2022-12-18T15:39:31;3.40;99.90
29731;DHT22;16639;51.488;0.152;2022-12-18T15:42:00;3.50;99.90
29731;DHT22;16639;51.488;0.152;2022-12-18T15:44:45;3.60;99.90
29731;DHT22;16639;51.488;0.152;2022-12-18T15:47:13;3.60;99.90
29731;DHT22;16639;51.488;0.152;2022-12-18T15:49:42;3.50;99.90
29731;DHT22;16639;51.488;0.152;2022-12-18T15:52:09;3.80;99.90
29731;DHT22;16639;51.488;0.152;2022-12-18T15:54:39;3.60;99.90
29731;DHT22;16639;51.488;0.152;2022-12-18T15:57:25;3.60;99.90
29731;DHT22;16639;51.488;0.152;2022-12-18T15:59:53;3.60;99.90
29731;DHT22;16639;51.488;0.152;2022-12-18T16:02:21;3.70;99.90
29731;DHT22;16639;51.488;0.152;2022-12-18T16:04:50;3.70;99.90
29731;DHT22;16639;51.488;0.152;2022-12-18T16:07:18;3.70;99.90
29731;DHT22;16639;51.488;0.152;2022-12-18T16:09:51;4.80;99.90
29731;DHT22;16639;51.488;0.152;2022-12-18T16:12:19;3.70;99.90
29731;DHT22;16639;51.488;0.152;2022-12-18T16:14:47;3.60;99.90
29731;DHT22;16639;51.488;0.152;2022-12-18T16:17:15;3.70;99.90
29731;DHT22;16639;51.488;0.152;2022-12-18T16:19:42;3.70;99.90
29731;DHT22;16639;51.488;0.152;2022-12-18T16:22:20;3.70;99.90
29731;DHT22;16639;51.488;0.152;2022-12-18T16:24:49;3.70;99.90
29731;DHT22;16639;51.488;0.152;2022-12-18T16:27:16;3.70;99.90
29731;DHT22;16639;51.488;0.152;2022-12-18T16:29:43;3.80;99.90
29731;DHT22;16639;51.488;0.152;2022-12-18T16:32:18;3.80;99.90
29731;DHT22;16639;51.488;0.152;2022-12-18T16:34:45;3.80;99.90
29731;DHT22;16639;51.488;0.152;2022-12-18T16:37:13;3.90;99.90
29731;DHT22;16639;51.488;0.152;2022-12-18T16:39:40;3.90;99.90
29731;DHT22;16639;51.488;0.152;2022-12-18T16:42:15;4.00;99.90
29731;DHT22;16639;51.488;0.152;2022-12-18T16:44:44;3.90;99.90
29731;DHT22;16639;51.488;0.152;2022-12-18T16:47:12;4.00;99.90
29731;DHT22;16639;51.488;0.152;2022-12-18T16:49:41;4.00;99.90
29731;DHT22;16639;51.488;0.152;2022-12-18T16:52:09;4.00;99.90
29731;DHT22;16639;51.488;0.152;2022-12-18T16:54:36;4.10;99.90
29731;DHT22;16639;51.488;0.152;2022-12-18T16:57:03;4.10;99.90
29731;DHT22;16639;51.488;0.152;2022-12-18T16:59:33;4.10;99.90
29731;DHT22;16639;51.488;0.152;2022-12-18T17:02:02;4.10;99.90
29731;DHT22;16639;51.488;0.152;2022-12-18T17:04:31;4.10;99.90
29731;DHT22;16639;51.488;0.152;2022-12-18T17:07:00;4.10;99.90
29731;DHT22;16639;51.488;0.152;2022-12-18T17:09:27;6.30;99.90
29731;DHT22;16639;51.488;0.152;2022-12-18T17:11:54;4.20;99.90
29731;DHT22;16639;51.488;0.152;2022-12-18T17:14:22;4.10;99.90
29731;DHT22;16639;51.488;0.152;2022-12-18T17:16:50;4.20;99.90
29731;DHT22;16639;51.488;0.152;2022-12-18T17:19:38;4.20;99.90
29731;DHT22;16639;51.488;0.152;2022-12-18T17:22:08;4.20;99.90
29731;DHT22;16639;51.488;0.152;2022-12-18T17:24:48;4.30;99.90
29731;DHT22;16639;51.488;0.152;2022-12-18T17:27:17;4.30;99.90
29731;DHT22;16639;51.488;0.152;2022-12-18T17:29:45;4.30;99.90
29731;DHT22;16639;51.488;0.152;2022-12-18T17:32:15;4.30;99.90
29731;DHT22;16639;51.488;0.152;2022-12-18T17:34:42;4.30;99.90
29731;DHT22;16639;51.488;0.152;2022-12-18T17:37:10;4.40;99.90
29731;DHT22;16639;51.488;0.152;2022-12-18T17:39:37;4.40;99.90
29731;DHT22;16639;51.488;0.152;2022-12-18T17:42:04;4.40;99.90
29731;DHT22;16639;51.488;0.152;2022-12-18T17:44:33;4.50;99.90
29731;DHT22;16639;51.488;0.152;2022-12-18T17:47:00;4.50;99.90
29731;DHT22;16639;51.488;0.152;2022-12-18T17:49:28;4.50;99.90
29731;DHT22;16639;51.488;0.152;2022-12-18T17:51:55;4.50;99.90
29731;DHT22;16639;51.488;0.152;2022-12-18T17:54:22;4.60;99.90
29731;DHT22;16639;51.488;0.152;2022-12-18T17:56:49;4.60;99.90